createdAt,value
2023-01-20T00:02:05.984Z,6.60
2023-01-20T00:04:33.682Z,8.43
2023-01-20T00:07:01.346Z,9.13
2023-01-20T00:09:30.607Z,8.47
2023-01-20T00:11:58.290Z,9.23
2023-01-20T00:14:27.777Z,11.30
2023-01-20T00:16:57.330Z,10.90
2023-01-20T00:19:25.196Z,10.80
2023-01-20T00:21:52.883Z,12.53
2023-01-20T00:24:20.604Z,12.57
2023-01-20T00:26:49.721Z,12.90
2023-01-20T00:29:17.537Z,12.50
2023-01-20T00:31:45.297Z,14.50
2023-01-20T00:34:13.074Z,14.77
2023-01-20T00:36:40.779Z,14.07
2023-01-20T00:39:08.536Z,14.13
2023-01-20T00:41:36.281Z,14.10
2023-01-20T00:44:05.506Z,16.03
2023-01-20T00:46:33.326Z,15.20
2023-01-20T00:49:01.070Z,14.80
2023-01-20T00:51:28.905Z,16.77
2023-01-20T00:53:56.593Z,17.07
2023-01-20T00:56:24.300Z,18.37
2023-01-20T00:58:52.060Z,19.93
2023-01-20T01:01:21.151Z,20.30
2023-01-20T01:03:49.049Z,18.83
2023-01-20T01:06:18.769Z,18.30
2023-01-20T01:08:46.640Z,21.53
2023-01-20T01:11:14.555Z,20.90
2023-01-20T01:13:42.743Z,22.67
2023-01-20T01:16:14.831Z,21.13
2023-01-20T01:18:44.441Z,21.33
2023-01-20T01:21:15.135Z,21.83
2023-01-20T01:23:42.888Z,22.57
2023-01-20T01:26:11.163Z,21.90
2023-01-20T01:28:39.715Z,22.43
2023-01-20T01:31:09.013Z,23.07
2023-01-20T01:33:37.297Z,22.53
2023-01-20T01:36:08.546Z,22.17
2023-01-20T01:38:36.342Z,23.83
2023-01-20T01:41:04.029Z,23.40
2023-01-20T01:43:33.712Z,24.03
2023-01-20T01:46:01.440Z,23.87
2023-01-20T01:48:32.409Z,23.97
2023-01-20T01:51:05.419Z,25.23
2023-01-20T01:53:41.128Z,26.60
2023-01-20T01:56:10.788Z,25.53
2023-01-20T01:58:42.937Z,26.70
2023-01-20T02:01:12.113Z,26.40
2023-01-20T02:03:45.840Z,27.63
2023-01-20T02:06:15.741Z,28.47
2023-01-20T02:08:45.227Z,27.77
2023-01-20T02:11:12.979Z,28.67
2023-01-20T02:13:41.214Z,31.50
2023-01-20T02:16:16.436Z,30.13
2023-01-20T02:18:59.303Z,30.63
2023-01-20T02:22:04.498Z,30.43
2023-01-20T02:24:59.373Z,30.17
2023-01-20T02:27:51.123Z,31.53
2023-01-20T02:30:38.662Z,33.97
2023-01-20T02:33:11.358Z,34.67
2023-01-20T02:35:45.158Z,36.53
2023-01-20T02:38:20.770Z,33.50
2023-01-20T02:40:57.372Z,36.13
2023-01-20T02:43:37.793Z,37.43
2023-01-20T02:46:12.483Z,35.87
2023-01-20T02:48:45.103Z,35.20
2023-01-20T02:51:15.818Z,36.33
2023-01-20T02:53:49.460Z,36.73
2023-01-20T02:56:18.936Z,37.60
2023-01-20T02:58:51.221Z,37.37
2023-01-20T03:01:25.202Z,36.80
2023-01-20T03:03:58.184Z,35.10
2023-01-20T03:06:31.294Z,35.23
2023-01-20T03:09:01.461Z,38.27
2023-01-20T03:11:32.414Z,36.20
2023-01-20T03:14:07.407Z,35.50
2023-01-20T03:16:35.561Z,36.10
2023-01-20T03:19:05.099Z,35.70
2023-01-20T03:21:34.257Z,37.40
2023-01-20T03:24:04.170Z,35.70
2023-01-20T03:26:31.906Z,33.87
2023-01-20T03:29:00.094Z,34.43
2023-01-20T03:31:31.081Z,34.13
2023-01-20T03:34:03.810Z,37.87
2023-01-20T03:36:34.475Z,35.20
2023-01-20T03:39:02.362Z,35.83
2023-01-20T03:41:37.506Z,35.67
2023-01-20T03:44:13.571Z,33.87
2023-01-20T03:46:47.125Z,32.17
2023-01-20T03:49:22.713Z,34.23
2023-01-20T03:52:01.712Z,31.10
2023-01-20T03:54:35.043Z,31.50
2023-01-20T03:57:07.656Z,32.37
2023-01-20T03:59:38.579Z,30.33
2023-01-20T04:02:09.094Z,31.60
2023-01-20T04:04:39.982Z,30.23
2023-01-20T04:07:13.097Z,27.37
2023-01-20T04:09:47.022Z,28.73
2023-01-20T04:12:15.051Z,28.67
2023-01-20T04:14:42.856Z,27.43
2023-01-20T04:17:11.037Z,27.23
2023-01-20T04:19:38.827Z,26.63
2023-01-20T04:22:14.052Z,25.37
2023-01-20T04:24:45.780Z,27.20
2023-01-20T04:27:13.490Z,25.00
2023-01-20T04:29:41.997Z,24.73
2023-01-20T04:32:11.764Z,25.27
2023-01-20T04:34:39.728Z,25.37
2023-01-20T04:37:07.372Z,25.40
2023-01-20T04:39:36.459Z,24.73
2023-01-20T04:42:04.912Z,26.23
2023-01-20T04:44:32.674Z,24.70
2023-01-20T04:47:00.372Z,25.80
2023-01-20T04:49:28.278Z,23.93
2023-01-20T04:51:55.992Z,24.80
2023-01-20T04:54:23.680Z,25.20
2023-01-20T04:56:52.796Z,24.77
2023-01-20T04:59:20.740Z,24.27
2023-01-20T05:01:48.650Z,24.40
2023-01-20T05:04:16.429Z,22.50
2023-01-20T05:06:44.988Z,23.30
2023-01-20T05:09:15.191Z,23.83
2023-01-20T05:11:43.019Z,22.53
2023-01-20T05:14:12.664Z,22.40
2023-01-20T05:16:40.421Z,20.53
2023-01-20T05:19:08.104Z,22.77
2023-01-20T05:21:35.799Z,22.87
2023-01-20T05:24:03.514Z,23.07
2023-01-20T05:26:32.791Z,22.43
2023-01-20T05:29:00.500Z,22.47
2023-01-20T05:31:29.770Z,22.83
2023-01-20T05:33:57.611Z,23.40
2023-01-20T05:36:25.449Z,22.67
2023-01-20T05:38:55.681Z,24.23
2023-01-20T05:41:23.451Z,22.53
2023-01-20T05:43:54.081Z,23.00
2023-01-20T05:46:22.108Z,22.70
2023-01-20T05:48:51.824Z,22.90
2023-01-20T05:51:19.666Z,21.80
2023-01-20T05:53:47.419Z,23.50
2023-01-20T05:56:16.200Z,24.97
2023-01-20T05:58:44.323Z,23.07
2023-01-20T06:01:14.163Z,23.30
2023-01-20T06:03:42.213Z,24.27
2023-01-20T06:06:15.576Z,22.33
2023-01-20T06:08:43.753Z,22.00
2023-01-20T06:11:11.569Z,21.37
2023-01-20T06:13:42.125Z,21.33
2023-01-20T06:16:09.865Z,19.73
2023-01-20T06:18:37.554Z,20.33
2023-01-20T06:21:05.534Z,20.10
2023-01-20T06:23:34.606Z,21.33
2023-01-20T06:26:03.801Z,21.73
2023-01-20T06:28:32.906Z,21.67
2023-01-20T06:31:02.111Z,21.23
2023-01-20T06:33:29.884Z,20.23
2023-01-20T06:35:58.031Z,20.10
2023-01-20T06:38:27.553Z,20.43
2023-01-20T06:40:59.752Z,23.30
2023-01-20T06:43:29.592Z,22.13
2023-01-20T06:46:01.182Z,21.43
2023-01-20T06:48:29.285Z,21.80
2023-01-20T06:51:01.744Z,21.33
2023-01-20T06:53:29.470Z,21.07
2023-01-20T06:55:59.919Z,22.53
2023-01-20T06:58:30.085Z,20.97
2023-01-20T07:00:59.126Z,21.10
2023-01-20T07:03:26.911Z,16.87
2023-01-20T07:05:58.722Z,19.20
2023-01-20T07:08:26.558Z,20.27
2023-01-20T07:10:54.311Z,20.37
2023-01-20T07:13:23.384Z,21.63
2023-01-20T07:15:51.162Z,20.77
2023-01-20T07:18:18.904Z,19.87
2023-01-20T07:20:46.615Z,22.70
2023-01-20T07:23:14.434Z,19.30
2023-01-20T07:25:42.148Z,21.13
2023-01-20T07:28:09.875Z,21.17
2023-01-20T07:30:38.962Z,20.33
2023-01-20T07:33:06.733Z,19.87
2023-01-20T07:35:34.516Z,20.03
2023-01-20T07:38:02.583Z,19.93
2023-01-20T07:40:30.335Z,19.47
2023-01-20T07:42:58.024Z,18.60
2023-01-20T07:45:25.894Z,20.03
2023-01-20T07:47:58.064Z,18.57
2023-01-20T07:50:25.780Z,19.50
2023-01-20T07:52:54.852Z,20.23
2023-01-20T07:55:25.005Z,19.17
2023-01-20T07:57:52.900Z,19.27
2023-01-20T08:00:21.500Z,18.97
2023-01-20T08:02:49.340Z,19.67
2023-01-20T08:05:18.430Z,19.80
2023-01-20T08:07:46.154Z,20.20
2023-01-20T08:10:13.825Z,19.73
2023-01-20T08:12:41.537Z,18.37
2023-01-20T08:15:10.643Z,17.97
2023-01-20T08:17:38.284Z,18.67
2023-01-20T08:20:07.059Z,19.33
2023-01-20T08:22:36.840Z,17.77
2023-01-20T08:25:04.825Z,18.33
2023-01-20T08:27:32.494Z,26.07
2023-01-20T08:30:00.177Z,24.30
2023-01-20T08:32:27.882Z,21.03
2023-01-20T08:34:55.805Z,41.77
2023-01-20T08:37:23.647Z,21.93
2023-01-20T08:39:52.749Z,19.53
2023-01-20T08:42:20.584Z,17.43
2023-01-20T08:44:52.938Z,19.73
2023-01-20T08:47:20.672Z,17.07
2023-01-20T08:49:48.420Z,16.00
2023-01-20T08:52:16.084Z,16.40
2023-01-20T08:54:43.777Z,15.37
2023-01-20T08:57:14.982Z,18.83
2023-01-20T08:59:43.102Z,16.77
2023-01-20T09:02:10.982Z,15.27
2023-01-20T09:04:38.708Z,16.47
2023-01-20T09:07:06.658Z,15.87
2023-01-20T09:09:34.315Z,16.37
2023-01-20T09:12:02.414Z,15.90
2023-01-20T09:14:31.464Z,16.00
2023-01-20T09:17:00.451Z,16.37
2023-01-20T09:19:28.247Z,15.33
2023-01-20T09:21:56.136Z,16.30
2023-01-20T09:24:24.857Z,16.80
2023-01-20T09:26:53.261Z,15.30
2023-01-20T09:29:21.665Z,15.33
2023-01-20T09:31:53.557Z,14.13
2023-01-20T09:34:24.924Z,15.60
2023-01-20T09:36:53.178Z,14.67
2023-01-20T09:39:39.445Z,15.17
2023-01-20T09:42:43.409Z,14.07
2023-01-20T09:45:24.909Z,15.13
2023-01-20T09:48:00.131Z,15.93
2023-01-20T09:50:55.232Z,14.13
2023-01-20T09:53:47.158Z,14.43
2023-01-20T09:56:17.832Z,14.73
2023-01-20T09:58:51.241Z,14.43
2023-01-20T10:01:24.465Z,15.67
2023-01-20T10:03:57.796Z,14.77
2023-01-20T10:06:33.386Z,13.80
2023-01-20T10:09:06.533Z,13.53
2023-01-20T10:11:39.148Z,14.43
2023-01-20T10:14:14.994Z,14.27
2023-01-20T10:16:49.691Z,12.90
2023-01-20T10:19:27.055Z,14.67
2023-01-20T10:22:06.249Z,11.50
2023-01-20T10:24:40.127Z,14.13
2023-01-20T10:27:07.868Z,13.47
2023-01-20T10:29:38.673Z,13.13
2023-01-20T10:32:13.732Z,12.30
2023-01-20T10:34:47.085Z,12.83
2023-01-20T10:37:16.269Z,12.30
2023-01-20T10:39:49.301Z,12.10
2023-01-20T10:42:18.243Z,11.77
2023-01-20T10:44:48.477Z,12.00
2023-01-20T10:47:19.358Z,12.37
2023-01-20T10:50:27.964Z,12.87
2023-01-20T10:53:13.553Z,11.40
2023-01-20T10:55:56.518Z,12.93
2023-01-20T10:58:28.395Z,10.70
2023-01-20T11:00:57.033Z,12.00
2023-01-20T11:03:26.873Z,11.73
2023-01-20T11:05:55.984Z,12.60
2023-01-20T11:08:27.137Z,13.33
2023-01-20T11:10:57.604Z,12.73
2023-01-20T11:13:25.864Z,15.30
2023-01-20T11:15:57.602Z,16.63
2023-01-20T11:18:29.128Z,19.80
2023-01-20T11:21:01.512Z,13.10
2023-01-20T11:23:41.670Z,15.07
2023-01-20T11:26:20.988Z,41.67
2023-01-20T11:28:53.350Z,24.07
2023-01-20T11:31:22.542Z,11.97
2023-01-20T11:33:59.713Z,11.50
2023-01-20T11:36:29.388Z,13.40
2023-01-20T11:38:58.636Z,12.47
2023-01-20T11:41:27.915Z,11.57
2023-01-20T11:43:57.851Z,15.83
2023-01-20T11:46:29.087Z,13.10
2023-01-20T11:49:18.541Z,12.20
2023-01-20T11:51:50.914Z,11.17
2023-01-20T11:54:21.877Z,12.43
2023-01-20T11:56:54.356Z,10.93
2023-01-20T11:59:28.931Z,11.43
2023-01-20T12:02:02.363Z,11.73
2023-01-20T12:04:45.288Z,11.20
2023-01-20T12:07:19.020Z,11.20
2023-01-20T12:09:51.470Z,12.10
2023-01-20T12:12:29.013Z,11.50
2023-01-20T12:15:03.268Z,11.60
2023-01-20T12:17:41.776Z,11.13
2023-01-20T12:20:20.349Z,10.57
2023-01-20T12:23:00.065Z,11.60
2023-01-20T12:25:31.105Z,12.40
2023-01-20T12:28:05.276Z,11.67
2023-01-20T12:30:59.226Z,11.80
2023-01-20T12:33:29.793Z,11.23
2023-01-20T12:36:39.879Z,10.87
2023-01-20T12:39:29.433Z,12.03
2023-01-20T12:42:24.086Z,11.57
2023-01-20T12:44:54.816Z,11.43
2023-01-20T12:47:38.849Z,11.70
2023-01-20T12:50:24.826Z,11.40
2023-01-20T12:53:05.110Z,11.63
2023-01-20T12:55:45.524Z,11.73
2023-01-20T12:58:24.692Z,11.23
2023-01-20T13:01:19.081Z,10.60
2023-01-20T13:04:32.939Z,10.47
2023-01-20T13:07:13.288Z,11.57
2023-01-20T13:09:57.803Z,11.47
2023-01-20T13:12:46.247Z,11.03
2023-01-20T13:15:20.068Z,9.17
2023-01-20T13:18:02.836Z,12.10
2023-01-20T13:20:31.684Z,10.50
2023-01-20T13:23:03.938Z,11.13
2023-01-20T13:25:33.176Z,11.43
2023-01-20T13:28:03.617Z,10.77
2023-01-20T13:30:48.001Z,12.47
2023-01-20T13:33:19.295Z,11.30
2023-01-20T13:35:50.221Z,16.90
2023-01-20T13:38:27.910Z,11.40
2023-01-20T13:40:58.628Z,16.70
2023-01-20T13:43:51.142Z,14.90
2023-01-20T13:46:39.441Z,10.53
2023-01-20T13:49:29.716Z,10.13
2023-01-20T13:51:57.801Z,10.40
2023-01-20T13:54:48.959Z,9.40
2023-01-20T13:57:46.930Z,11.77
2023-01-20T14:00:20.867Z,9.97
2023-01-20T14:02:50.125Z,11.10
2023-01-20T14:05:32.560Z,10.67
2023-01-20T14:08:00.869Z,12.57
2023-01-20T14:10:29.247Z,11.67
2023-01-20T14:12:56.923Z,11.60
2023-01-20T14:15:36.823Z,11.90
2023-01-20T14:18:05.696Z,11.73
2023-01-20T14:20:33.510Z,12.03
2023-01-20T14:23:27.759Z,11.80
2023-01-20T14:26:04.298Z,12.23
2023-01-20T14:28:32.593Z,11.33
2023-01-20T14:31:18.809Z,10.60
2023-01-20T14:33:57.852Z,10.27
2023-01-20T14:36:27.821Z,9.67
2023-01-20T14:38:58.697Z,11.60
2023-01-20T14:41:29.474Z,10.70
2023-01-20T14:43:58.108Z,11.13
2023-01-20T14:46:29.051Z,10.00
2023-01-20T14:48:58.080Z,10.47
2023-01-20T14:51:26.267Z,10.50
2023-01-20T14:54:28.503Z,9.63
2023-01-20T14:56:56.556Z,10.20
2023-01-20T14:59:25.202Z,11.50
2023-01-20T15:01:56.750Z,10.13
2023-01-20T15:04:24.736Z,10.57
2023-01-20T15:06:54.742Z,10.67
2023-01-20T15:09:28.256Z,10.47
2023-01-20T15:12:32.184Z,11.03
2023-01-20T15:15:11.732Z,10.90
2023-01-20T15:18:04.636Z,10.70
2023-01-20T15:20:34.203Z,11.57
2023-01-20T15:23:02.072Z,13.23
2023-01-20T15:25:30.346Z,11.47
2023-01-20T15:27:58.803Z,12.90
2023-01-20T15:30:29.806Z,10.40
2023-01-20T15:32:59.133Z,9.20
2023-01-20T15:35:27.007Z,9.40
2023-01-20T15:37:55.638Z,8.97
2023-01-20T15:40:25.111Z,10.83
2023-01-20T15:42:53.545Z,15.67
2023-01-20T15:45:21.441Z,10.70
2023-01-20T15:47:49.774Z,11.53
2023-01-20T15:50:21.445Z,11.93
2023-01-20T15:52:49.597Z,10.03
2023-01-20T15:55:19.169Z,10.67
2023-01-20T15:57:50.861Z,9.30
2023-01-20T16:00:20.535Z,8.60
2023-01-20T16:02:48.518Z,9.80
2023-01-20T16:05:17.875Z,9.77
2023-01-20T16:07:49.470Z,9.33
2023-01-20T16:10:19.500Z,8.73
2023-01-20T16:12:48.203Z,9.00
2023-01-20T16:15:18.198Z,8.00
2023-01-20T16:17:46.030Z,10.07
2023-01-20T16:20:19.801Z,11.03
2023-01-20T16:22:48.858Z,12.47
2023-01-20T16:25:17.158Z,10.20
2023-01-20T16:27:45.155Z,9.27
2023-01-20T16:30:16.185Z,8.90
2023-01-20T16:32:46.189Z,12.80
2023-01-20T16:35:14.687Z,10.83
2023-01-20T16:37:43.447Z,8.33
2023-01-20T16:40:16.653Z,11.23
2023-01-20T16:42:44.542Z,10.70
2023-01-20T16:45:23.039Z,8.90
2023-01-20T16:47:51.016Z,9.40
2023-01-20T16:50:19.234Z,9.93
2023-01-20T16:52:46.958Z,10.97
2023-01-20T16:55:16.095Z,30.40
2023-01-20T16:57:44.361Z,15.77
2023-01-20T17:00:13.225Z,16.77
2023-01-20T17:02:40.956Z,41.70
2023-01-20T17:05:09.705Z,26.67
2023-01-20T17:07:37.495Z,10.43
2023-01-20T17:10:05.783Z,12.20
2023-01-20T17:12:35.112Z,49.60
2023-01-20T17:15:02.821Z,16.43
2023-01-20T17:17:30.526Z,10.40
2023-01-20T17:19:58.223Z,10.53
2023-01-20T17:22:26.120Z,11.30
2023-01-20T17:24:53.777Z,11.23
2023-01-20T17:27:21.543Z,11.27
2023-01-20T17:29:50.559Z,10.37
2023-01-20T17:32:18.244Z,11.47
2023-01-20T17:34:45.941Z,11.63
2023-01-20T17:37:13.651Z,13.17
2023-01-20T17:39:42.751Z,15.33
2023-01-20T17:42:10.580Z,13.03
2023-01-20T17:44:38.735Z,13.07
2023-01-20T17:47:07.835Z,12.57
2023-01-20T17:49:35.580Z,17.10
2023-01-20T17:52:03.352Z,17.57
2023-01-20T17:54:31.112Z,37.87
2023-01-20T17:56:58.832Z,45.77
2023-01-20T17:59:26.852Z,52.47
2023-01-20T18:01:55.381Z,40.37
2023-01-20T18:04:24.437Z,23.57
2023-01-20T18:06:52.121Z,15.53
2023-01-20T18:09:19.798Z,15.17
2023-01-20T18:11:47.527Z,11.13
2023-01-20T18:14:15.221Z,11.80
2023-01-20T18:16:43.300Z,11.23
2023-01-20T18:19:13.006Z,13.23
2023-01-20T18:21:43.658Z,11.27
2023-01-20T18:24:12.651Z,11.13
2023-01-20T18:26:42.493Z,11.70
2023-01-20T18:29:14.937Z,11.90
2023-01-20T18:31:44.748Z,11.37
2023-01-20T18:34:15.698Z,11.43
2023-01-20T18:36:46.260Z,12.70
2023-01-20T18:39:15.858Z,11.60
2023-01-20T18:41:44.443Z,10.20
2023-01-20T18:44:12.215Z,11.33
2023-01-20T18:46:40.208Z,12.57
2023-01-20T18:49:09.822Z,12.97
2023-01-20T18:51:38.252Z,12.33
2023-01-20T18:54:10.451Z,14.77
2023-01-20T18:56:38.825Z,12.90
2023-01-20T18:59:08.071Z,15.77
2023-01-20T19:01:39.833Z,15.80
2023-01-20T19:04:09.883Z,14.53
2023-01-20T19:06:40.320Z,14.17
2023-01-20T19:09:10.136Z,13.97
2023-01-20T19:11:40.078Z,12.77
2023-01-20T19:14:10.981Z,13.17
2023-01-20T19:16:42.172Z,12.90
2023-01-20T19:19:11.797Z,14.17
2023-01-20T19:21:39.774Z,12.77
2023-01-20T19:24:11.891Z,11.97
2023-01-20T19:26:39.988Z,12.97
2023-01-20T19:29:09.563Z,10.90
2023-01-20T19:31:39.871Z,12.10
2023-01-20T19:34:09.143Z,12.03
2023-01-20T19:36:37.764Z,13.10
2023-01-20T19:39:06.044Z,11.93
2023-01-20T19:41:36.323Z,11.97
2023-01-20T19:44:06.782Z,11.70
2023-01-20T19:46:37.347Z,11.07
2023-01-20T19:49:05.490Z,10.90
2023-01-20T19:51:33.217Z,12.40
2023-01-20T19:54:02.261Z,10.47
2023-01-20T19:56:32.261Z,11.20
2023-01-20T19:59:02.318Z,11.67
2023-01-20T20:01:31.983Z,11.97
2023-01-20T20:04:00.839Z,13.67
2023-01-20T20:06:30.631Z,13.60
2023-01-20T20:08:59.848Z,13.43
2023-01-20T20:11:27.950Z,13.10
2023-01-20T20:13:56.791Z,13.80
2023-01-20T20:16:28.176Z,15.13
2023-01-20T20:18:56.794Z,15.37
2023-01-20T20:21:25.593Z,16.07
2023-01-20T20:23:54.812Z,14.60
2023-01-20T20:26:23.737Z,13.40
2023-01-20T20:28:52.031Z,14.00
2023-01-20T20:31:22.274Z,14.20
2023-01-20T20:33:51.446Z,11.87
2023-01-20T20:36:19.186Z,13.27
2023-01-20T20:38:51.249Z,12.13
2023-01-20T20:41:19.487Z,12.67
2023-01-20T20:43:47.400Z,15.03
2023-01-20T20:46:16.799Z,12.97
2023-01-20T20:48:44.666Z,12.13
2023-01-20T20:51:18.190Z,11.27
2023-01-20T20:53:46.489Z,11.83
2023-01-20T20:56:17.121Z,14.47
2023-01-20T20:59:00.323Z,14.27
2023-01-20T21:01:30.355Z,14.53
2023-01-20T21:04:00.248Z,14.37
2023-01-20T21:06:30.595Z,13.37
2023-01-20T21:08:59.471Z,15.50
2023-01-20T21:11:27.975Z,16.33
2023-01-20T21:13:56.185Z,14.40
2023-01-20T21:16:25.109Z,14.20
2023-01-20T21:18:56.162Z,17.70
2023-01-20T21:21:24.777Z,21.27
2023-01-20T21:23:56.181Z,21.37
2023-01-20T21:26:25.908Z,19.70
2023-01-20T21:28:54.910Z,21.40
2023-01-20T21:31:26.632Z,18.47
2023-01-20T21:33:56.996Z,18.37
2023-01-20T21:36:25.419Z,18.70
2023-01-20T21:38:54.620Z,17.13
2023-01-20T21:41:22.486Z,17.67
2023-01-20T21:44:07.943Z,16.30
2023-01-20T21:46:39.329Z,17.30
2023-01-20T21:49:26.230Z,17.80
2023-01-20T21:52:11.444Z,16.10
2023-01-20T21:54:41.524Z,16.70
2023-01-20T21:57:10.177Z,16.07
2023-01-20T21:59:38.124Z,16.83
2023-01-20T22:02:06.183Z,15.20
2023-01-20T22:04:34.196Z,15.87
2023-01-20T22:07:02.060Z,16.50
2023-01-20T22:09:30.201Z,17.10
2023-01-20T22:11:59.361Z,15.33
2023-01-20T22:14:27.186Z,17.00
2023-01-20T22:16:54.907Z,15.40
2023-01-20T22:19:22.663Z,16.43
2023-01-20T22:21:50.347Z,15.07
2023-01-20T22:24:18.501Z,15.97
2023-01-20T22:26:48.063Z,14.73
2023-01-20T22:29:18.506Z,15.07
2023-01-20T22:31:46.470Z,13.80
2023-01-20T22:34:14.279Z,18.07
2023-01-20T22:36:42.046Z,21.27
2023-01-20T22:39:12.898Z,24.97
2023-01-20T22:41:40.972Z,24.00
2023-01-20T22:44:08.843Z,19.37
2023-01-20T22:46:37.960Z,22.13
2023-01-20T22:49:05.745Z,19.77
2023-01-20T22:51:33.566Z,19.37
2023-01-20T22:54:02.374Z,16.40
2023-01-20T22:56:31.760Z,15.87
2023-01-20T22:59:00.762Z,15.90
2023-01-20T23:01:30.366Z,16.13
2023-01-20T23:04:01.642Z,17.83
2023-01-20T23:06:33.248Z,16.67
2023-01-20T23:09:02.212Z,18.73
2023-01-20T23:11:30.041Z,17.63
2023-01-20T23:13:58.254Z,21.23
2023-01-20T23:16:26.014Z,17.00
2023-01-20T23:18:53.699Z,16.83
2023-01-20T23:21:24.317Z,18.83
2023-01-20T23:23:54.682Z,17.53
2023-01-20T23:26:24.530Z,17.67
2023-01-20T23:28:53.599Z,17.20
2023-01-20T23:31:22.326Z,19.03
2023-01-20T23:33:50.693Z,18.83
2023-01-20T23:36:20.921Z,18.57
2023-01-20T23:38:50.189Z,20.10
2023-01-20T23:41:18.188Z,17.50
2023-01-20T23:43:45.958Z,17.47
2023-01-20T23:46:13.698Z,17.27
2023-01-20T23:48:41.412Z,17.77
2023-01-20T23:51:09.210Z,18.03
2023-01-20T23:53:40.371Z,17.67
2023-01-20T23:56:13.527Z,15.63
2023-01-20T23:58:41.588Z,16.07
